sensor_id;sensor_type;location;lat;lon;timestamp;P1;durP1;ratioP1;P2;durP2;ratioP2
57317;SDS011;43157;50.982;18.132;2023-08-08T00:01:45;5.60;;;0.90;;
57317;SDS011;43157;50.982;18.132;2023-08-08T00:04:11;6.80;;;1.00;;
57317;SDS011;43157;50.982;18.132;2023-08-08T00:06:37;7.30;;;1.20;;
57317;SDS011;43157;50.982;18.132;2023-08-08T00:09:03;9.50;;;1.10;;
57317;SDS011;43157;50.982;18.132;2023-08-08T00:11:30;5.10;;;0.80;;
57317;SDS011;43157;50.982;18.132;2023-08-08T00:13:56;6.60;;;1.00;;
57317;SDS011;43157;50.982;18.132;2023-08-08T00:16:22;4.30;;;0.80;;
57317;SDS011;43157;50.982;18.132;2023-08-08T00:18:49;4.80;;;0.80;;
57317;SDS011;43157;50.982;18.132;2023-08-08T00:21:16;7.10;;;1.10;;
57317;SDS011;43157;50.982;18.132;2023-08-08T00:23:42;4.10;;;0.90;;
57317;SDS011;43157;50.982;18.132;2023-08-08T00:26:08;4.60;;;0.80;;
57317;SDS011;43157;50.982;18.132;2023-08-08T00:28:34;4.90;;;1.00;;
57317;SDS011;43157;50.982;18.132;2023-08-08T00:31:01;7.90;;;1.00;;
57317;SDS011;43157;50.982;18.132;2023-08-08T00:33:27;5.40;;;0.80;;
57317;SDS011;43157;50.982;18.132;2023-08-08T00:35:53;6.60;;;0.90;;
57317;SDS011;43157;50.982;18.132;2023-08-08T00:38:19;6.50;;;0.90;;
57317;SDS011;43157;50.982;18.132;2023-08-08T00:40:45;6.10;;;0.80;;
57317;SDS011;43157;50.982;18.132;2023-08-08T00:43:12;6.60;;;0.80;;
57317;SDS011;43157;50.982;18.132;2023-08-08T00:45:38;6.70;;;1.20;;
57317;SDS011;43157;50.982;18.132;2023-08-08T00:48:06;5.00;;;0.70;;
57317;SDS011;43157;50.982;18.132;2023-08-08T00:50:32;4.80;;;0.80;;
57317;SDS011;43157;50.982;18.132;2023-08-08T00:52:58;7.30;;;0.80;;
57317;SDS011;43157;50.982;18.132;2023-08-08T00:55:24;6.90;;;0.90;;
57317;SDS011;43157;50.982;18.132;2023-08-08T00:57:51;6.10;;;0.80;;
57317;SDS011;43157;50.982;18.132;2023-08-08T01:00:16;8.40;;;1.00;;
57317;SDS011;43157;50.982;18.132;2023-08-08T01:02:42;7.90;;;0.80;;
57317;SDS011;43157;50.982;18.132;2023-08-08T01:05:08;6.80;;;0.80;;
57317;SDS011;43157;50.982;18.132;2023-08-08T01:10:29;6.30;;;0.90;;
57317;SDS011;43157;50.982;18.132;2023-08-08T01:13:20;4.50;;;0.70;;
57317;SDS011;43157;50.982;18.132;2023-08-08T01:15:48;6.60;;;1.10;;
57317;SDS011;43157;50.982;18.132;2023-08-08T01:18:15;7.80;;;0.80;;
57317;SDS011;43157;50.982;18.132;2023-08-08T01:20:42;7.10;;;0.90;;
57317;SDS011;43157;50.982;18.132;2023-08-08T01:25:35;11.50;;;0.90;;
57317;SDS011;43157;50.982;18.132;2023-08-08T01:28:01;6.10;;;0.80;;
57317;SDS011;43157;50.982;18.132;2023-08-08T01:30:29;7.80;;;0.90;;
57317;SDS011;43157;50.982;18.132;2023-08-08T01:32:55;4.80;;;0.80;;
57317;SDS011;43157;50.982;18.132;2023-08-08T01:35:21;7.00;;;0.80;;
57317;SDS011;43157;50.982;18.132;2023-08-08T01:37:49;8.00;;;1.00;;
57317;SDS011;43157;50.982;18.132;2023-08-08T01:40:18;7.70;;;0.60;;
57317;SDS011;43157;50.982;18.132;2023-08-08T01:42:45;7.00;;;0.80;;
57317;SDS011;43157;50.982;18.132;2023-08-08T01:45:12;5.80;;;0.80;;
57317;SDS011;43157;50.982;18.132;2023-08-08T01:47:38;4.50;;;0.80;;
57317;SDS011;43157;50.982;18.132;2023-08-08T01:50:04;7.80;;;1.00;;
57317;SDS011;43157;50.982;18.132;2023-08-08T01:52:31;6.80;;;0.80;;
57317;SDS011;43157;50.982;18.132;2023-08-08T01:54:57;6.80;;;0.90;;
57317;SDS011;43157;50.982;18.132;2023-08-08T01:57:23;5.40;;;1.00;;
57317;SDS011;43157;50.982;18.132;2023-08-08T01:59:49;4.70;;;0.90;;
57317;SDS011;43157;50.982;18.132;2023-08-08T02:02:16;5.40;;;0.90;;
57317;SDS011;43157;50.982;18.132;2023-08-08T02:04:43;5.10;;;1.10;;
57317;SDS011;43157;50.982;18.132;2023-08-08T02:07:09;7.20;;;1.30;;
57317;SDS011;43157;50.982;18.132;2023-08-08T02:09:35;5.30;;;0.70;;
57317;SDS011;43157;50.982;18.132;2023-08-08T02:12:01;7.00;;;0.80;;
57317;SDS011;43157;50.982;18.132;2023-08-08T02:14:27;5.70;;;1.00;;
57317;SDS011;43157;50.982;18.132;2023-08-08T02:16:53;6.10;;;0.80;;
57317;SDS011;43157;50.982;18.132;2023-08-08T02:19:19;7.50;;;1.00;;
57317;SDS011;43157;50.982;18.132;2023-08-08T02:21:46;5.80;;;0.80;;
57317;SDS011;43157;50.982;18.132;2023-08-08T02:24:12;6.50;;;0.90;;
57317;SDS011;43157;50.982;18.132;2023-08-08T02:26:38;10.90;;;1.30;;
57317;SDS011;43157;50.982;18.132;2023-08-08T02:29:04;5.10;;;1.20;;
57317;SDS011;43157;50.982;18.132;2023-08-08T02:31:31;4.60;;;0.80;;
57317;SDS011;43157;50.982;18.132;2023-08-08T02:33:57;4.20;;;0.80;;
57317;SDS011;43157;50.982;18.132;2023-08-08T02:36:23;4.50;;;0.70;;
57317;SDS011;43157;50.982;18.132;2023-08-08T02:38:49;6.50;;;1.10;;
57317;SDS011;43157;50.982;18.132;2023-08-08T02:41:19;4.30;;;0.90;;
57317;SDS011;43157;50.982;18.132;2023-08-08T02:43:46;4.80;;;0.90;;
57317;SDS011;43157;50.982;18.132;2023-08-08T02:46:12;7.50;;;0.90;;
57317;SDS011;43157;50.982;18.132;2023-08-08T02:48:38;6.60;;;1.10;;
57317;SDS011;43157;50.982;18.132;2023-08-08T02:51:04;6.10;;;1.00;;
57317;SDS011;43157;50.982;18.132;2023-08-08T02:53:30;3.60;;;0.80;;
57317;SDS011;43157;50.982;18.132;2023-08-08T02:55:57;5.20;;;0.70;;
57317;SDS011;43157;50.982;18.132;2023-08-08T02:58:23;5.50;;;1.10;;
57317;SDS011;43157;50.982;18.132;2023-08-08T03:00:49;6.40;;;1.00;;
57317;SDS011;43157;50.982;18.132;2023-08-08T03:03:15;5.60;;;0.90;;
57317;SDS011;43157;50.982;18.132;2023-08-08T03:05:41;3.50;;;0.90;;
57317;SDS011;43157;50.982;18.132;2023-08-08T03:08:09;3.80;;;0.90;;
57317;SDS011;43157;50.982;18.132;2023-08-08T03:10:35;5.40;;;1.00;;
57317;SDS011;43157;50.982;18.132;2023-08-08T03:13:01;4.80;;;0.80;;
57317;SDS011;43157;50.982;18.132;2023-08-08T03:15:27;5.20;;;1.00;;
57317;SDS011;43157;50.982;18.132;2023-08-08T03:17:53;4.90;;;1.10;;
57317;SDS011;43157;50.982;18.132;2023-08-08T03:20:20;3.30;;;0.80;;
57317;SDS011;43157;50.982;18.132;2023-08-08T03:22:46;7.00;;;0.90;;
57317;SDS011;43157;50.982;18.132;2023-08-08T03:25:12;5.50;;;0.90;;
57317;SDS011;43157;50.982;18.132;2023-08-08T03:27:38;6.90;;;1.10;;
57317;SDS011;43157;50.982;18.132;2023-08-08T03:30:05;5.40;;;1.00;;
57317;SDS011;43157;50.982;18.132;2023-08-08T03:32:32;5.40;;;1.10;;
57317;SDS011;43157;50.982;18.132;2023-08-08T03:34:58;5.30;;;0.90;;
57317;SDS011;43157;50.982;18.132;2023-08-08T03:37:24;5.60;;;0.80;;
57317;SDS011;43157;50.982;18.132;2023-08-08T03:39:50;7.40;;;1.30;;
57317;SDS011;43157;50.982;18.132;2023-08-08T03:42:17;7.60;;;1.20;;
57317;SDS011;43157;50.982;18.132;2023-08-08T03:44:43;5.30;;;1.10;;
57317;SDS011;43157;50.982;18.132;2023-08-08T03:47:10;5.50;;;1.00;;
57317;SDS011;43157;50.982;18.132;2023-08-08T03:49:37;4.60;;;1.10;;
57317;SDS011;43157;50.982;18.132;2023-08-08T03:52:03;7.40;;;1.30;;
57317;SDS011;43157;50.982;18.132;2023-08-08T03:54:29;6.30;;;1.10;;
57317;SDS011;43157;50.982;18.132;2023-08-08T03:56:55;4.50;;;1.10;;
57317;SDS011;43157;50.982;18.132;2023-08-08T03:59:21;7.00;;;1.00;;
57317;SDS011;43157;50.982;18.132;2023-08-08T04:14:04;6.80;;;1.20;;
57317;SDS011;43157;50.982;18.132;2023-08-08T04:16:30;4.40;;;1.10;;
57317;SDS011;43157;50.982;18.132;2023-08-08T04:18:56;7.30;;;1.00;;
57317;SDS011;43157;50.982;18.132;2023-08-08T04:21:22;6.90;;;1.30;;
57317;SDS011;43157;50.982;18.132;2023-08-08T04:23:49;9.60;;;1.50;;
57317;SDS011;43157;50.982;18.132;2023-08-08T04:26:15;6.00;;;1.40;;
57317;SDS011;43157;50.982;18.132;2023-08-08T04:28:41;4.80;;;1.00;;
57317;SDS011;43157;50.982;18.132;2023-08-08T04:31:07;6.50;;;1.30;;
57317;SDS011;43157;50.982;18.132;2023-08-08T04:33:34;6.10;;;1.30;;
57317;SDS011;43157;50.982;18.132;2023-08-08T04:36:00;4.20;;;1.00;;
57317;SDS011;43157;50.982;18.132;2023-08-08T04:38:26;7.60;;;1.30;;
57317;SDS011;43157;50.982;18.132;2023-08-08T04:40:52;10.50;;;1.40;;
57317;SDS011;43157;50.982;18.132;2023-08-08T04:43:18;8.60;;;1.40;;
57317;SDS011;43157;50.982;18.132;2023-08-08T04:45:45;7.80;;;1.60;;
57317;SDS011;43157;50.982;18.132;2023-08-08T04:48:11;4.30;;;1.20;;
57317;SDS011;43157;50.982;18.132;2023-08-08T04:50:37;7.60;;;1.00;;
57317;SDS011;43157;50.982;18.132;2023-08-08T04:53:03;6.30;;;1.10;;
57317;SDS011;43157;50.982;18.132;2023-08-08T04:55:29;4.70;;;1.20;;
57317;SDS011;43157;50.982;18.132;2023-08-08T04:57:56;7.00;;;1.30;;
57317;SDS011;43157;50.982;18.132;2023-08-08T05:00:22;7.20;;;1.10;;
57317;SDS011;43157;50.982;18.132;2023-08-08T05:02:48;6.00;;;1.20;;
57317;SDS011;43157;50.982;18.132;2023-08-08T05:05:14;7.90;;;1.30;;
57317;SDS011;43157;50.982;18.132;2023-08-08T05:07:40;8.10;;;1.10;;
57317;SDS011;43157;50.982;18.132;2023-08-08T05:10:07;8.20;;;1.30;;
57317;SDS011;43157;50.982;18.132;2023-08-08T05:12:33;6.50;;;1.10;;
57317;SDS011;43157;50.982;18.132;2023-08-08T05:14:59;9.70;;;1.60;;
57317;SDS011;43157;50.982;18.132;2023-08-08T05:17:26;8.70;;;1.00;;
57317;SDS011;43157;50.982;18.132;2023-08-08T05:19:52;5.60;;;1.00;;
57317;SDS011;43157;50.982;18.132;2023-08-08T05:22:18;8.20;;;1.20;;
57317;SDS011;43157;50.982;18.132;2023-08-08T05:24:44;6.30;;;1.00;;
57317;SDS011;43157;50.982;18.132;2023-08-08T05:27:10;5.80;;;1.00;;
57317;SDS011;43157;50.982;18.132;2023-08-08T05:29:37;6.10;;;1.40;;
57317;SDS011;43157;50.982;18.132;2023-08-08T05:32:05;7.90;;;1.10;;
57317;SDS011;43157;50.982;18.132;2023-08-08T05:34:32;7.50;;;1.10;;
57317;SDS011;43157;50.982;18.132;2023-08-08T05:36:59;5.60;;;1.00;;
57317;SDS011;43157;50.982;18.132;2023-08-08T05:39:25;5.50;;;1.20;;
57317;SDS011;43157;50.982;18.132;2023-08-08T05:41:52;4.80;;;0.90;;
57317;SDS011;43157;50.982;18.132;2023-08-08T05:44:18;5.60;;;1.10;;
57317;SDS011;43157;50.982;18.132;2023-08-08T05:46:44;6.70;;;0.90;;
57317;SDS011;43157;50.982;18.132;2023-08-08T05:49:10;5.30;;;1.00;;
57317;SDS011;43157;50.982;18.132;2023-08-08T05:51:36;9.10;;;1.10;;
57317;SDS011;43157;50.982;18.132;2023-08-08T05:54:03;7.00;;;1.10;;
57317;SDS011;43157;50.982;18.132;2023-08-08T05:56:35;6.20;;;0.90;;
57317;SDS011;43157;50.982;18.132;2023-08-08T05:59:02;5.80;;;1.00;;
57317;SDS011;43157;50.982;18.132;2023-08-08T06:01:28;6.30;;;1.00;;
57317;SDS011;43157;50.982;18.132;2023-08-08T06:03:55;5.10;;;0.90;;
57317;SDS011;43157;50.982;18.132;2023-08-08T06:06:21;4.30;;;1.00;;
57317;SDS011;43157;50.982;18.132;2023-08-08T06:08:47;7.20;;;1.00;;
57317;SDS011;43157;50.982;18.132;2023-08-08T06:11:13;6.50;;;1.00;;
57317;SDS011;43157;50.982;18.132;2023-08-08T06:13:39;4.40;;;1.00;;
57317;SDS011;43157;50.982;18.132;2023-08-08T06:16:06;3.90;;;1.00;;
57317;SDS011;43157;50.982;18.132;2023-08-08T06:18:33;5.00;;;0.80;;
57317;SDS011;43157;50.982;18.132;2023-08-08T06:20:59;5.00;;;0.90;;
57317;SDS011;43157;50.982;18.132;2023-08-08T06:23:25;6.30;;;0.90;;
57317;SDS011;43157;50.982;18.132;2023-08-08T06:25:51;5.80;;;0.90;;
57317;SDS011;43157;50.982;18.132;2023-08-08T06:28:17;5.90;;;1.00;;
57317;SDS011;43157;50.982;18.132;2023-08-08T06:30:44;5.30;;;0.80;;
57317;SDS011;43157;50.982;18.132;2023-08-08T06:33:10;4.50;;;0.90;;
57317;SDS011;43157;50.982;18.132;2023-08-08T06:35:36;4.60;;;0.80;;
57317;SDS011;43157;50.982;18.132;2023-08-08T06:38:02;4.10;;;0.90;;
57317;SDS011;43157;50.982;18.132;2023-08-08T06:40:28;6.10;;;0.90;;
57317;SDS011;43157;50.982;18.132;2023-08-08T06:42:55;5.30;;;0.90;;
57317;SDS011;43157;50.982;18.132;2023-08-08T06:45:21;5.80;;;0.90;;
57317;SDS011;43157;50.982;18.132;2023-08-08T06:47:47;2.60;;;0.60;;
57317;SDS011;43157;50.982;18.132;2023-08-08T06:50:14;5.60;;;0.80;;
57317;SDS011;43157;50.982;18.132;2023-08-08T06:52:40;4.80;;;0.80;;
57317;SDS011;43157;50.982;18.132;2023-08-08T06:55:06;4.20;;;0.80;;
57317;SDS011;43157;50.982;18.132;2023-08-08T06:57:32;5.30;;;0.80;;
57317;SDS011;43157;50.982;18.132;2023-08-08T06:59:59;4.10;;;1.00;;
57317;SDS011;43157;50.982;18.132;2023-08-08T07:02:25;3.90;;;0.80;;
57317;SDS011;43157;50.982;18.132;2023-08-08T07:04:52;5.10;;;0.80;;
57317;SDS011;43157;50.982;18.132;2023-08-08T07:07:18;6.50;;;0.90;;
57317;SDS011;43157;50.982;18.132;2023-08-08T07:09:44;5.10;;;0.80;;
57317;SDS011;43157;50.982;18.132;2023-08-08T07:12:10;5.80;;;0.80;;
57317;SDS011;43157;50.982;18.132;2023-08-08T07:14:36;4.20;;;0.80;;
57317;SDS011;43157;50.982;18.132;2023-08-08T07:17:03;4.60;;;0.80;;
57317;SDS011;43157;50.982;18.132;2023-08-08T07:19:29;3.90;;;0.70;;
57317;SDS011;43157;50.982;18.132;2023-08-08T07:21:55;5.20;;;0.80;;
57317;SDS011;43157;50.982;18.132;2023-08-08T07:24:21;3.50;;;0.70;;
57317;SDS011;43157;50.982;18.132;2023-08-08T07:26:48;4.60;;;0.70;;
57317;SDS011;43157;50.982;18.132;2023-08-08T07:29:14;4.60;;;0.80;;
57317;SDS011;43157;50.982;18.132;2023-08-08T07:31:41;6.50;;;0.90;;
57317;SDS011;43157;50.982;18.132;2023-08-08T07:34:07;4.40;;;0.80;;
57317;SDS011;43157;50.982;18.132;2023-08-08T07:36:33;4.70;;;0.90;;
57317;SDS011;43157;50.982;18.132;2023-08-08T07:38:59;5.40;;;0.90;;
57317;SDS011;43157;50.982;18.132;2023-08-08T07:41:25;5.00;;;1.00;;
57317;SDS011;43157;50.982;18.132;2023-08-08T07:43:52;6.60;;;0.80;;
57317;SDS011;43157;50.982;18.132;2023-08-08T07:46:18;4.60;;;0.90;;
57317;SDS011;43157;50.982;18.132;2023-08-08T07:48:44;4.40;;;0.90;;
57317;SDS011;43157;50.982;18.132;2023-08-08T07:51:11;4.50;;;1.00;;
57317;SDS011;43157;50.982;18.132;2023-08-08T07:53:37;2.10;;;0.50;;
57317;SDS011;43157;50.982;18.132;2023-08-08T07:56:03;3.90;;;0.70;;
57317;SDS011;43157;50.982;18.132;2023-08-08T07:58:31;4.30;;;0.60;;
57317;SDS011;43157;50.982;18.132;2023-08-08T08:00:57;4.10;;;0.70;;
57317;SDS011;43157;50.982;18.132;2023-08-08T08:03:25;4.30;;;0.80;;
57317;SDS011;43157;50.982;18.132;2023-08-08T08:05:52;4.30;;;0.70;;
57317;SDS011;43157;50.982;18.132;2023-08-08T08:08:19;4.70;;;0.70;;
57317;SDS011;43157;50.982;18.132;2023-08-08T08:10:47;6.10;;;0.70;;
57317;SDS011;43157;50.982;18.132;2023-08-08T08:13:14;2.90;;;0.60;;
57317;SDS011;43157;50.982;18.132;2023-08-08T08:15:40;7.40;;;0.90;;
57317;SDS011;43157;50.982;18.132;2023-08-08T08:18:06;4.80;;;0.80;;
57317;SDS011;43157;50.982;18.132;2023-08-08T08:20:32;4.30;;;0.80;;
57317;SDS011;43157;50.982;18.132;2023-08-08T08:22:58;4.40;;;0.90;;
57317;SDS011;43157;50.982;18.132;2023-08-08T08:25:25;7.30;;;0.90;;
57317;SDS011;43157;50.982;18.132;2023-08-08T08:27:51;3.60;;;0.90;;
57317;SDS011;43157;50.982;18.132;2023-08-08T08:30:17;4.90;;;0.90;;
57317;SDS011;43157;50.982;18.132;2023-08-08T08:32:44;7.00;;;1.00;;
57317;SDS011;43157;50.982;18.132;2023-08-08T08:35:10;5.50;;;0.90;;
57317;SDS011;43157;50.982;18.132;2023-08-08T08:37:38;6.30;;;1.10;;
57317;SDS011;43157;50.982;18.132;2023-08-08T08:40:04;5.10;;;0.90;;
57317;SDS011;43157;50.982;18.132;2023-08-08T08:42:31;4.20;;;0.80;;
57317;SDS011;43157;50.982;18.132;2023-08-08T08:44:58;3.20;;;0.70;;
57317;SDS011;43157;50.982;18.132;2023-08-08T08:47:24;7.30;;;1.10;;
57317;SDS011;43157;50.982;18.132;2023-08-08T08:49:54;3.60;;;0.70;;
57317;SDS011;43157;50.982;18.132;2023-08-08T08:52:21;3.90;;;0.80;;
57317;SDS011;43157;50.982;18.132;2023-08-08T08:54:48;5.30;;;0.90;;
57317;SDS011;43157;50.982;18.132;2023-08-08T08:57:16;3.90;;;0.60;;
57317;SDS011;43157;50.982;18.132;2023-08-08T08:59:42;6.10;;;0.80;;
57317;SDS011;43157;50.982;18.132;2023-08-08T09:02:08;5.20;;;0.80;;
57317;SDS011;43157;50.982;18.132;2023-08-08T09:04:36;4.40;;;0.80;;
57317;SDS011;43157;50.982;18.132;2023-08-08T09:07:02;4.00;;;1.10;;
57317;SDS011;43157;50.982;18.132;2023-08-08T09:09:32;6.20;;;0.70;;
57317;SDS011;43157;50.982;18.132;2023-08-08T09:11:58;6.60;;;1.00;;
57317;SDS011;43157;50.982;18.132;2023-08-08T09:14:25;3.00;;;0.80;;
57317;SDS011;43157;50.982;18.132;2023-08-08T09:16:53;2.50;;;0.60;;
57317;SDS011;43157;50.982;18.132;2023-08-08T09:19:20;3.80;;;0.60;;
57317;SDS011;43157;50.982;18.132;2023-08-08T09:21:46;5.20;;;0.70;;
57317;SDS011;43157;50.982;18.132;2023-08-08T09:24:13;3.50;;;0.60;;
57317;SDS011;43157;50.982;18.132;2023-08-08T09:26:40;4.70;;;0.80;;
57317;SDS011;43157;50.982;18.132;2023-08-08T09:29:07;5.70;;;0.90;;
57317;SDS011;43157;50.982;18.132;2023-08-08T09:31:36;7.50;;;1.00;;
57317;SDS011;43157;50.982;18.132;2023-08-08T09:34:03;4.10;;;0.80;;
57317;SDS011;43157;50.982;18.132;2023-08-08T09:36:29;4.80;;;0.70;;
57317;SDS011;43157;50.982;18.132;2023-08-08T09:38:56;6.20;;;0.70;;
57317;SDS011;43157;50.982;18.132;2023-08-08T09:41:23;4.40;;;0.90;;
57317;SDS011;43157;50.982;18.132;2023-08-08T09:43:50;3.60;;;0.60;;
57317;SDS011;43157;50.982;18.132;2023-08-08T09:46:20;3.90;;;0.80;;
57317;SDS011;43157;50.982;18.132;2023-08-08T09:48:46;6.00;;;0.60;;
57317;SDS011;43157;50.982;18.132;2023-08-08T09:51:13;2.00;;;0.50;;
57317;SDS011;43157;50.982;18.132;2023-08-08T09:53:40;6.90;;;1.00;;
57317;SDS011;43157;50.982;18.132;2023-08-08T09:56:06;5.20;;;0.80;;
57317;SDS011;43157;50.982;18.132;2023-08-08T09:58:33;4.90;;;0.90;;
57317;SDS011;43157;50.982;18.132;2023-08-08T10:00:59;6.50;;;1.00;;
57317;SDS011;43157;50.982;18.132;2023-08-08T10:03:25;4.20;;;0.90;;
57317;SDS011;43157;50.982;18.132;2023-08-08T10:05:54;3.20;;;0.70;;
57317;SDS011;43157;50.982;18.132;2023-08-08T10:08:20;4.80;;;0.70;;
57317;SDS011;43157;50.982;18.132;2023-08-08T10:10:47;5.30;;;0.80;;
57317;SDS011;43157;50.982;18.132;2023-08-08T10:13:21;4.50;;;0.90;;
57317;SDS011;43157;50.982;18.132;2023-08-08T10:15:46;4.00;;;0.70;;
57317;SDS011;43157;50.982;18.132;2023-08-08T10:18:13;4.00;;;0.70;;
57317;SDS011;43157;50.982;18.132;2023-08-08T10:20:41;2.60;;;0.60;;
57317;SDS011;43157;50.982;18.132;2023-08-08T10:23:10;2.60;;;0.70;;
57317;SDS011;43157;50.982;18.132;2023-08-08T10:25:36;2.90;;;0.50;;
57317;SDS011;43157;50.982;18.132;2023-08-08T10:30:29;4.50;;;0.60;;
57317;SDS011;43157;50.982;18.132;2023-08-08T10:32:56;4.40;;;0.80;;
57317;SDS011;43157;50.982;18.132;2023-08-08T10:35:22;4.20;;;0.90;;
57317;SDS011;43157;50.982;18.132;2023-08-08T10:37:53;3.80;;;0.80;;
57317;SDS011;43157;50.982;18.132;2023-08-08T10:40:19;5.00;;;0.70;;
57317;SDS011;43157;50.982;18.132;2023-08-08T10:42:47;6.20;;;0.90;;
57317;SDS011;43157;50.982;18.132;2023-08-08T10:45:14;4.00;;;0.70;;
57317;SDS011;43157;50.982;18.132;2023-08-08T10:47:41;3.10;;;1.00;;
57317;SDS011;43157;50.982;18.132;2023-08-08T10:50:11;5.90;;;0.90;;
57317;SDS011;43157;50.982;18.132;2023-08-08T10:55:19;3.30;;;0.70;;
57317;SDS011;43157;50.982;18.132;2023-08-08T10:57:53;2.60;;;0.70;;
57317;SDS011;43157;50.982;18.132;2023-08-08T11:00:24;4.00;;;0.80;;
57317;SDS011;43157;50.982;18.132;2023-08-08T11:02:53;4.80;;;0.70;;
57317;SDS011;43157;50.982;18.132;2023-08-08T11:05:20;4.70;;;1.00;;
57317;SDS011;43157;50.982;18.132;2023-08-08T11:07:47;3.70;;;0.50;;
57317;SDS011;43157;50.982;18.132;2023-08-08T11:10:13;3.10;;;0.50;;
57317;SDS011;43157;50.982;18.132;2023-08-08T11:12:40;4.10;;;0.70;;
57317;SDS011;43157;50.982;18.132;2023-08-08T11:15:06;3.80;;;0.60;;
57317;SDS011;43157;50.982;18.132;2023-08-08T11:17:32;3.70;;;0.60;;
57317;SDS011;43157;50.982;18.132;2023-08-08T11:19:59;4.70;;;0.60;;
57317;SDS011;43157;50.982;18.132;2023-08-08T11:22:25;3.10;;;0.60;;
57317;SDS011;43157;50.982;18.132;2023-08-08T11:24:51;6.20;;;0.70;;
57317;SDS011;43157;50.982;18.132;2023-08-08T11:27:17;2.70;;;0.50;;
57317;SDS011;43157;50.982;18.132;2023-08-08T11:29:50;3.60;;;0.60;;
57317;SDS011;43157;50.982;18.132;2023-08-08T11:32:16;2.70;;;0.60;;
57317;SDS011;43157;50.982;18.132;2023-08-08T11:34:42;5.90;;;0.60;;
57317;SDS011;43157;50.982;18.132;2023-08-08T11:37:09;2.50;;;0.50;;
57317;SDS011;43157;50.982;18.132;2023-08-08T11:39:36;2.70;;;0.50;;
57317;SDS011;43157;50.982;18.132;2023-08-08T11:42:02;4.30;;;0.60;;
57317;SDS011;43157;50.982;18.132;2023-08-08T11:44:28;1.70;;;0.50;;
57317;SDS011;43157;50.982;18.132;2023-08-08T11:46:55;3.40;;;0.60;;
57317;SDS011;43157;50.982;18.132;2023-08-08T11:49:21;4.40;;;0.70;;
57317;SDS011;43157;50.982;18.132;2023-08-08T11:51:47;2.40;;;0.50;;
57317;SDS011;43157;50.982;18.132;2023-08-08T11:54:13;3.40;;;0.50;;
57317;SDS011;43157;50.982;18.132;2023-08-08T11:56:40;3.00;;;0.50;;
57317;SDS011;43157;50.982;18.132;2023-08-08T11:59:06;3.90;;;0.70;;
57317;SDS011;43157;50.982;18.132;2023-08-08T12:01:33;4.00;;;0.50;;
57317;SDS011;43157;50.982;18.132;2023-08-08T12:04:06;2.20;;;0.50;;
57317;SDS011;43157;50.982;18.132;2023-08-08T12:06:36;3.00;;;0.40;;
57317;SDS011;43157;50.982;18.132;2023-08-08T12:09:03;5.10;;;0.40;;
57317;SDS011;43157;50.982;18.132;2023-08-08T12:11:28;2.50;;;0.50;;
57317;SDS011;43157;50.982;18.132;2023-08-08T12:13:58;2.20;;;0.50;;
57317;SDS011;43157;50.982;18.132;2023-08-08T12:16:27;2.10;;;0.50;;
57317;SDS011;43157;50.982;18.132;2023-08-08T12:18:59;4.20;;;0.70;;
57317;SDS011;43157;50.982;18.132;2023-08-08T12:21:26;3.20;;;0.50;;
57317;SDS011;43157;50.982;18.132;2023-08-08T12:23:52;2.60;;;0.60;;
57317;SDS011;43157;50.982;18.132;2023-08-08T12:26:19;4.40;;;0.60;;
57317;SDS011;43157;50.982;18.132;2023-08-08T12:28:45;5.00;;;0.50;;
57317;SDS011;43157;50.982;18.132;2023-08-08T12:31:11;3.10;;;0.50;;
57317;SDS011;43157;50.982;18.132;2023-08-08T12:33:37;4.00;;;0.60;;
57317;SDS011;43157;50.982;18.132;2023-08-08T12:36:04;3.70;;;0.60;;
57317;SDS011;43157;50.982;18.132;2023-08-08T12:38:30;2.80;;;0.60;;
57317;SDS011;43157;50.982;18.132;2023-08-08T12:40:56;3.30;;;0.70;;
57317;SDS011;43157;50.982;18.132;2023-08-08T12:43:23;3.30;;;0.60;;
57317;SDS011;43157;50.982;18.132;2023-08-08T12:45:49;6.70;;;0.60;;
57317;SDS011;43157;50.982;18.132;2023-08-08T12:48:15;4.20;;;0.70;;
57317;SDS011;43157;50.982;18.132;2023-08-08T12:50:41;3.20;;;0.60;;
57317;SDS011;43157;50.982;18.132;2023-08-08T12:53:08;3.50;;;0.70;;
57317;SDS011;43157;50.982;18.132;2023-08-08T12:55:34;4.90;;;0.80;;
57317;SDS011;43157;50.982;18.132;2023-08-08T12:58:01;3.20;;;0.90;;
57317;SDS011;43157;50.982;18.132;2023-08-08T13:00:27;4.80;;;0.70;;
57317;SDS011;43157;50.982;18.132;2023-08-08T13:02:54;4.10;;;0.70;;
57317;SDS011;43157;50.982;18.132;2023-08-08T13:05:20;3.20;;;0.70;;
57317;SDS011;43157;50.982;18.132;2023-08-08T13:07:46;2.60;;;0.50;;
57317;SDS011;43157;50.982;18.132;2023-08-08T13:10:13;5.40;;;0.90;;
57317;SDS011;43157;50.982;18.132;2023-08-08T13:12:39;3.60;;;0.70;;
57317;SDS011;43157;50.982;18.132;2023-08-08T13:15:05;4.50;;;0.90;;
57317;SDS011;43157;50.982;18.132;2023-08-08T13:17:33;3.10;;;0.70;;
57317;SDS011;43157;50.982;18.132;2023-08-08T13:19:59;3.50;;;0.70;;
57317;SDS011;43157;50.982;18.132;2023-08-08T13:22:25;5.50;;;0.90;;
57317;SDS011;43157;50.982;18.132;2023-08-08T13:24:52;3.10;;;0.60;;
57317;SDS011;43157;50.982;18.132;2023-08-08T13:27:18;3.90;;;0.60;;
57317;SDS011;43157;50.982;18.132;2023-08-08T13:29:44;4.60;;;0.70;;
57317;SDS011;43157;50.982;18.132;2023-08-08T13:32:10;4.00;;;0.70;;
57317;SDS011;43157;50.982;18.132;2023-08-08T13:34:37;3.20;;;0.50;;
57317;SDS011;43157;50.982;18.132;2023-08-08T13:37:03;2.50;;;0.70;;
57317;SDS011;43157;50.982;18.132;2023-08-08T13:39:29;4.40;;;0.80;;
57317;SDS011;43157;50.982;18.132;2023-08-08T13:41:55;4.30;;;0.90;;
57317;SDS011;43157;50.982;18.132;2023-08-08T13:44:21;4.40;;;0.80;;
57317;SDS011;43157;50.982;18.132;2023-08-08T13:46:48;2.90;;;1.10;;
57317;SDS011;43157;50.982;18.132;2023-08-08T13:49:14;3.00;;;0.60;;
57317;SDS011;43157;50.982;18.132;2023-08-08T13:51:40;4.30;;;0.70;;
57317;SDS011;43157;50.982;18.132;2023-08-08T13:54:07;3.90;;;0.70;;
57317;SDS011;43157;50.982;18.132;2023-08-08T13:56:33;3.80;;;0.70;;
57317;SDS011;43157;50.982;18.132;2023-08-08T13:58:59;5.40;;;0.80;;
57317;SDS011;43157;50.982;18.132;2023-08-08T14:01:25;3.80;;;0.80;;
57317;SDS011;43157;50.982;18.132;2023-08-08T14:03:52;2.30;;;0.70;;
57317;SDS011;43157;50.982;18.132;2023-08-08T14:06:18;4.20;;;0.70;;
57317;SDS011;43157;50.982;18.132;2023-08-08T14:08:44;3.60;;;0.70;;
57317;SDS011;43157;50.982;18.132;2023-08-08T14:11:11;3.40;;;0.70;;
57317;SDS011;43157;50.982;18.132;2023-08-08T14:13:37;7.00;;;0.80;;
57317;SDS011;43157;50.982;18.132;2023-08-08T14:16:04;2.70;;;0.70;;
57317;SDS011;43157;50.982;18.132;2023-08-08T14:18:31;6.70;;;0.70;;
57317;SDS011;43157;50.982;18.132;2023-08-08T14:20:57;3.20;;;0.60;;
57317;SDS011;43157;50.982;18.132;2023-08-08T14:23:23;4.20;;;0.80;;
57317;SDS011;43157;50.982;18.132;2023-08-08T14:25:49;4.60;;;0.70;;
57317;SDS011;43157;50.982;18.132;2023-08-08T14:28:15;3.00;;;0.70;;
57317;SDS011;43157;50.982;18.132;2023-08-08T14:30:42;3.60;;;0.70;;
57317;SDS011;43157;50.982;18.132;2023-08-08T14:33:08;4.50;;;0.80;;
57317;SDS011;43157;50.982;18.132;2023-08-08T14:35:34;3.80;;;0.80;;
57317;SDS011;43157;50.982;18.132;2023-08-08T14:38:00;4.00;;;0.70;;
57317;SDS011;43157;50.982;18.132;2023-08-08T14:40:26;3.40;;;0.70;;
57317;SDS011;43157;50.982;18.132;2023-08-08T14:42:53;5.70;;;0.90;;
57317;SDS011;43157;50.982;18.132;2023-08-08T14:45:19;3.30;;;0.80;;
57317;SDS011;43157;50.982;18.132;2023-08-08T14:47:46;6.60;;;0.70;;
57317;SDS011;43157;50.982;18.132;2023-08-08T14:50:12;4.00;;;0.90;;
57317;SDS011;43157;50.982;18.132;2023-08-08T14:52:39;4.40;;;0.90;;